Terminal Aerodrome Forecast
Issued by NWS

Home | Current Version | Previous Version | Text Only | Print | Product List | Glossary On
Versions: 1 2 3 4 5 6 7 8 9 10 11 12 13 14 15 16
000
FTPQ31 PGUM 251902 AAA
TAFGUM
TAF AMD

TAF AMD
PGSN 251902Z 2519/2618 10009KT 6SM SHRA VCTS SCT015CB SCT025 BKN120
      TEMPO 2519/2523 5SM SHRA SCT015 OVC025
     FM260200 12011KT P6SM VCSH SCT018 SCT030 BKN120
     FM260900 09008KT P6SM VCSH SCT018 BKN120=

USA.gov is the U.S. government's official web portal to all federal, state and local government web resources and services.